Time;durP1;ratioP1;P1;durP2;ratioP2;P2;SDS_P1;SDS_P2;PMS_P1;PMS_P2;Temp;Humidity;BMP_temperature;BMP_pressure;BME280_temperature;BME280_humidity;BME280_pressure;Samples;Min_cycle;Max_cycle;Signal;HPM_P1;HPM_P2
2022/01/06 00:00:28;;;;;;;1.60;1.50;;;1.30;1.00;;;;;;5013142;28;20243;-71
2022/01/06 00:02:54;;;;;;;1.95;1.50;;;1.30;1.00;;;;;;5013873;28;20200;-71
2022/01/06 00:05:19;;;;;;;11.25;2.05;;;1.30;1.00;;;;;;5014084;28;20169;-71
2022/01/06 00:07:45;;;;;;;2.80;1.60;;;1.20;1.00;;;;;;4996026;28;20382;-72
2022/01/06 00:10:13;;;;;;;4.07;2.27;;;1.20;1.00;;;;;;4995299;28;20683;-71
2022/01/06 00:15:31;;;;;;;7.90;2.13;;;1.30;1.00;;;;;;5013804;28;20729;-72
2022/01/06 00:23:31;;;;;;;2.37;2.27;;;1.20;1.00;;;;;;5014117;28;20222;-71
2022/01/06 00:25:59;;;;;;;2.03;1.90;;;1.20;1.00;;;;;;5013334;28;20816;-71
2022/01/06 00:28:25;;;;;;;1.90;1.80;;;1.10;1.00;;;;;;5013728;28;20482;-73
2022/01/06 00:30:51;;;;;;;1.80;1.70;;;1.20;1.00;;;;;;5012626;28;20196;-71
2022/01/06 00:33:17;;;;;;;1.63;1.53;;;1.20;1.00;;;;;;5013574;28;20892;-73
2022/01/06 00:35:42;;;;;;;4.50;2.13;;;1.10;1.00;;;;;;5013381;28;20510;-72
2022/01/06 00:38:08;;;;;;;3.20;1.80;;;1.10;1.00;;;;;;5013225;28;20963;-72
2022/01/06 00:40:36;;;;;;;1.63;1.50;;;1.10;1.00;;;;;;5012649;28;20207;-73
2022/01/06 00:43:04;;;;;;;3.93;1.50;;;1.00;1.00;;;;;;5013383;28;20450;-71
2022/01/06 00:45:30;;;;;;;2.40;2.17;;;1.00;1.00;;;;;;4995854;28;20445;-72
2022/01/06 00:47:55;;;;;;;1.98;1.88;;;1.00;1.00;;;;;;5013212;28;20187;-71
2022/01/06 00:50:22;;;;;;;1.90;1.80;;;1.00;1.00;;;;;;5012340;28;20196;-74
2022/01/06 00:52:48;;;;;;;2.25;2.05;;;0.90;1.00;;;;;;5013269;28;20532;-72
2022/01/06 00:55:14;;;;;;;1.63;1.53;;;0.90;1.00;;;;;;4995824;28;20180;-71
2022/01/06 00:57:39;;;;;;;4.53;1.63;;;1.00;1.00;;;;;;4995467;28;20781;-73
2022/01/06 01:00:06;;;;;;;15.53;1.90;;;1.00;1.00;;;;;;5012275;28;20198;-73
2022/01/06 01:02:32;;;;;;;2.30;1.57;;;1.00;1.00;;;;;;5013066;28;20168;-72
2022/01/06 01:04:58;;;;;;;2.70;1.83;;;1.00;1.00;;;;;;4993858;28;20459;-71
2022/01/06 01:07:23;;;;;;;5.53;2.23;;;1.00;1.00;;;;;;4992689;28;20568;-73
2022/01/06 01:09:49;;;;;;;1.90;1.80;;;1.00;1.00;;;;;;5011873;28;20665;-74
2022/01/06 01:12:14;;;;;;;2.10;2.00;;;1.00;1.00;;;;;;4999558;28;20175;-71
2022/01/06 01:15:06;;;;;;;1.60;1.50;;;1.00;1.00;;;;;;5016566;28;20660;-74
2022/01/06 01:17:32;;;;;;;1.70;1.60;;;1.00;1.00;;;;;;5017017;28;20191;-71
2022/01/06 01:19:58;;;;;;;5.05;2.58;;;0.90;1.00;;;;;;5015694;28;20953;-74
2022/01/06 01:22:24;;;;;;;1.60;1.50;;;0.90;1.00;;;;;;4999091;28;20177;-71
2022/01/06 01:24:49;;;;;;;3.28;1.80;;;0.90;1.00;;;;;;5016916;28;20179;-72
2022/01/06 01:27:20;;;;;;;1.50;1.40;;;1.00;1.00;;;;;;5016557;28;20176;-72
2022/01/06 01:29:57;;;;;;;1.90;1.80;;;1.00;1.00;;;;;;5015911;28;20214;-72
2022/01/06 01:32:30;;;;;;;1.63;1.52;;;1.00;1.00;;;;;;5016463;28;20199;-73
2022/01/06 01:35:00;;;;;;;2.25;1.42;;;1.00;1.00;;;;;;5016698;28;20181;-71
2022/01/06 01:37:27;;;;;;;2.85;2.65;;;1.00;1.00;;;;;;5016279;28;20195;-74
2022/01/06 01:39:52;;;;;;;4.60;2.25;;;1.00;1.00;;;;;;5015631;28;20221;-72
2022/01/06 01:42:18;;;;;;;2.50;2.30;;;1.00;1.00;;;;;;5016190;28;20181;-71
2022/01/06 01:44:45;;;;;;;2.20;2.00;;;1.00;1.00;;;;;;4998725;28;20178;-74
2022/01/06 01:47:14;;;;;;;1.95;1.85;;;0.90;1.00;;;;;;5016344;28;20338;-71
2022/01/06 01:49:54;;;;;;;1.52;1.42;;;0.90;1.00;;;;;;5015520;28;20173;-71
2022/01/06 01:52:20;;;;;;;3.35;1.75;;;0.90;1.00;;;;;;5015761;28;20262;-72
2022/01/06 01:54:46;;;;;;;1.90;1.80;;;0.90;1.00;;;;;;5016197;28;20214;-71
2022/01/06 01:57:12;;;;;;;5.40;1.70;;;1.00;1.00;;;;;;5015952;28;20717;-71
2022/01/06 01:59:38;;;;;;;2.33;2.20;;;1.00;1.00;;;;;;4997901;28;20419;-71
2022/01/06 02:02:04;;;;;;;2.07;1.80;;;1.00;1.00;;;;;;5015987;28;20454;-71
2022/01/06 02:04:29;;;;;;;2.47;2.28;;;1.10;1.00;;;;;;4998496;28;20203;-73
2022/01/06 02:06:55;;;;;;;3.90;1.90;;;1.10;1.00;;;;;;5015685;28;20645;-71
2022/01/06 02:09:21;;;;;;;2.33;2.20;;;1.30;1.00;;;;;;5015097;28;20188;-74
2022/01/06 02:11:46;;;;;;;13.57;2.27;;;1.30;1.00;;;;;;5015713;28;20196;-73
2022/01/06 02:14:12;;;;;;;1.50;1.40;;;1.30;1.00;;;;;;4998736;28;20175;-75
2022/01/06 02:16:38;;;;;;;2.37;1.97;;;1.40;1.00;;;;;;5015574;28;20172;-71
2022/01/06 02:19:04;;;;;;;2.40;2.07;;;1.50;1.00;;;;;;5014985;28;20168;-71
2022/01/06 02:21:29;;;;;;;1.83;1.70;;;1.40;1.00;;;;;;4997818;28;20188;-71
2022/01/06 02:23:55;;;;;;;1.90;1.80;;;1.50;1.00;;;;;;5015716;28;20483;-71
2022/01/06 02:26:21;;;;;;;2.27;1.73;;;1.50;1.00;;;;;;5015432;28;20179;-74
2022/01/06 02:28:46;;;;;;;3.47;1.97;;;1.40;1.00;;;;;;4997251;28;20180;-74
2022/01/06 02:31:12;;;;;;;2.30;2.10;;;1.30;1.00;;;;;;5015238;28;20447;-74
2022/01/06 02:33:38;;;;;;;2.00;1.90;;;1.30;1.00;;;;;;4998088;28;20241;-71
2022/01/06 02:36:04;;;;;;;2.00;1.80;;;1.30;1.00;;;;;;4997674;28;20172;-73
2022/01/06 02:38:30;;;;;;;2.27;2.17;;;1.30;1.00;;;;;;4997155;28;20462;-75
2022/01/06 02:40:56;;;;;;;2.00;1.90;;;1.30;1.00;;;;;;5015070;28;20911;-74
2022/01/06 02:43:24;;;;;;;1.67;1.50;;;1.30;1.00;;;;;;4998060;28;20165;-74
2022/01/06 02:45:49;;;;;;;1.48;1.38;;;1.20;1.00;;;;;;5015381;28;20295;-75
2022/01/06 02:48:15;;;;;;;1.70;1.60;;;1.10;1.00;;;;;;4997330;28;20267;-74
2022/01/06 02:50:45;;;;;;;1.60;1.50;;;1.10;1.00;;;;;;5013953;28;20204;-71
2022/01/06 02:53:13;;;;;;;4.80;2.00;;;1.10;1.00;;;;;;4995559;28;20949;-72
2022/01/06 02:55:43;;;;;;;1.60;1.50;;;1.20;1.00;;;;;;4995575;28;20411;-74
2022/01/06 02:58:09;;;;;;;2.03;1.83;;;1.20;1.00;;;;;;4995548;28;20205;-74
2022/01/06 03:00:35;;;;;;;1.87;1.77;;;1.30;1.00;;;;;;4992814;28;20446;-72
2022/01/06 03:03:01;;;;;;;1.70;1.60;;;1.40;1.00;;;;;;5014928;28;20174;-74
2022/01/06 03:05:27;;;;;;;1.80;1.70;;;1.40;1.00;;;;;;5014360;28;20180;-72
2022/01/06 03:07:52;;;;;;;3.53;1.90;;;1.50;1.00;;;;;;5015016;28;20473;-72
2022/01/06 03:10:18;;;;;;;1.63;1.53;;;1.40;1.00;;;;;;5013647;28;20227;-71
2022/01/06 03:12:46;;;;;;;1.60;1.50;;;1.50;1.00;;;;;;5014617;28;20180;-74
2022/01/06 03:15:17;;;;;;;2.20;2.00;;;1.40;1.00;;;;;;5014850;28;20168;-74
2022/01/06 03:17:48;;;;;;;1.83;1.73;;;1.40;1.00;;;;;;5014346;28;20462;-74
2022/01/06 03:20:16;;;;;;;1.53;1.43;;;1.50;1.00;;;;;;5013538;28;20418;-71
2022/01/06 03:22:42;;;;;;;1.93;1.70;;;1.50;1.00;;;;;;4997379;28;20403;-74
2022/01/06 03:25:09;;;;;;;1.80;1.67;;;1.50;1.00;;;;;;5014361;28;20450;-74
2022/01/06 03:27:35;;;;;;;1.40;1.30;;;1.60;1.00;;;;;;5014630;28;20411;-71
2022/01/06 03:30:02;;;;;;;3.43;1.83;;;1.60;1.00;;;;;;5013644;28;20469;-72
2022/01/06 03:32:28;;;;;;;1.63;1.53;;;1.60;1.00;;;;;;5013806;28;20180;-72
2022/01/06 03:34:54;;;;;;;3.23;1.90;;;1.60;1.00;;;;;;5014623;28;20392;-72
2022/01/06 03:37:19;;;;;;;2.10;2.00;;;1.70;1.00;;;;;;4996706;28;20192;-72
2022/01/06 03:39:45;;;;;;;3.40;3.20;;;1.70;1.00;;;;;;4995704;28;20537;-74
2022/01/06 03:42:12;;;;;;;1.70;1.60;;;1.70;1.00;;;;;;5014209;28;20184;-74
2022/01/06 03:44:38;;;;;;;1.70;1.60;;;1.70;1.00;;;;;;4996962;28;20171;-72
2022/01/06 03:47:05;;;;;;;4.23;1.87;;;1.70;1.00;;;;;;5013883;28;20427;-74
2022/01/06 03:49:30;;;;;;;2.23;1.57;;;1.70;1.00;;;;;;5013165;28;20777;-74
2022/01/06 03:51:56;;;;;;;1.60;1.50;;;1.70;1.00;;;;;;4996215;28;20534;-73
2022/01/06 03:54:23;;;;;;;1.53;1.43;;;1.60;1.00;;;;;;4996792;28;20210;-74
2022/01/06 03:56:49;;;;;;;1.70;1.60;;;1.70;1.00;;;;;;4996356;28;20545;-74
2022/01/06 03:59:18;;;;;;;1.60;1.50;;;1.70;1.00;;;;;;4995655;28;20407;-73
2022/01/06 04:01:45;;;;;;;1.57;1.47;;;1.60;1.00;;;;;;5013531;28;20435;-73
2022/01/06 04:04:13;;;;;;;1.87;1.67;;;1.60;1.00;;;;;;4996288;28;20912;-72
2022/01/06 04:06:39;;;;;;;1.90;1.70;;;1.70;1.00;;;;;;5013819;28;20425;-74
2022/01/06 04:09:05;;;;;;;1.63;1.53;;;1.60;1.00;;;;;;4995578;28;20435;-75
2022/01/06 04:11:31;;;;;;;1.70;1.60;;;1.60;1.00;;;;;;4995677;28;20493;-74
2022/01/06 04:13:57;;;;;;;2.30;1.90;;;1.50;1.00;;;;;;5013900;28;20399;-72
2022/01/06 04:16:25;;;;;;;7.03;1.73;;;1.50;1.00;;;;;;5013834;28;20213;-74
2022/01/06 04:18:50;;;;;;;4.50;1.73;;;1.50;1.00;;;;;;5012935;28;20447;-76
2022/01/06 04:21:16;;;;;;;2.20;2.10;;;1.60;1.00;;;;;;5013484;28;20501;-74
2022/01/06 04:23:42;;;;;;;2.00;1.90;;;1.50;1.00;;;;;;5013790;28;20168;-73
2022/01/06 04:26:07;;;;;;;3.30;2.20;;;1.40;1.00;;;;;;5013535;28;20175;-74
2022/01/06 04:28:33;;;;;;;2.20;2.10;;;1.50;1.00;;;;;;5012866;28;20436;-75
2022/01/06 04:30:59;;;;;;;6.63;1.80;;;1.50;1.00;;;;;;5013460;28;20269;-72
2022/01/06 04:33:24;;;;;;;1.40;1.30;;;1.50;1.00;;;;;;4996156;28;20494;-74
2022/01/06 04:35:50;;;;;;;1.53;1.43;;;1.50;1.00;;;;;;5013403;28;20187;-73
2022/01/06 04:38:16;;;;;;;2.37;2.17;;;1.60;1.00;;;;;;5013513;28;20194;-72
2022/01/06 04:40:41;;;;;;;2.13;1.90;;;1.50;1.00;;;;;;5012389;28;20215;-74
2022/01/06 04:43:07;;;;;;;2.03;1.93;;;1.40;1.00;;;;;;5013397;28;20239;-72
2022/01/06 04:45:34;;;;;;;2.03;1.93;;;1.40;1.00;;;;;;5015741;28;20182;-76
2022/01/06 04:48:00;;;;;;;1.70;1.60;;;1.40;1.00;;;;;;5017477;28;20409;-74
2022/01/06 04:50:25;;;;;;;1.57;1.47;;;1.50;1.00;;;;;;5016102;28;20426;-75
2022/01/06 04:52:51;;;;;;;2.23;2.03;;;1.50;1.00;;;;;;5017436;28;20184;-72
2022/01/06 04:55:17;;;;;;;1.57;1.47;;;1.50;1.00;;;;;;5017460;28;20199;-74
2022/01/06 04:57:42;;;;;;;3.63;1.70;;;1.50;1.00;;;;;;5016901;28;20696;-75
2022/01/06 05:00:09;;;;;;;2.00;1.80;;;1.40;1.00;;;;;;4998674;28;20295;-74
2022/01/06 05:02:34;;;;;;;2.07;1.90;;;1.40;1.00;;;;;;5016895;28;20172;-72
2022/01/06 05:05:00;;;;;;;1.60;1.50;;;1.40;1.00;;;;;;5017356;28;20402;-72
2022/01/06 05:07:26;;;;;;;1.60;1.50;;;1.50;1.00;;;;;;5016940;28;20183;-73
2022/01/06 05:09:52;;;;;;;2.40;1.83;;;1.50;1.00;;;;;;5016270;28;20521;-75
2022/01/06 05:12:17;;;;;;;14.97;2.07;;;1.50;1.00;;;;;;5016608;28;20243;-75
2022/01/06 05:14:43;;;;;;;2.30;2.10;;;1.60;1.00;;;;;;5017269;28;20176;-73
2022/01/06 05:17:09;;;;;;;3.10;2.23;;;1.60;1.00;;;;;;4999206;28;20323;-75
2022/01/06 05:19:35;;;;;;;2.80;2.27;;;1.60;1.00;;;;;;4998416;28;20633;-73
2022/01/06 05:22:02;;;;;;;2.13;2.03;;;1.70;1.00;;;;;;4999703;28;20515;-74
2022/01/06 05:24:28;;;;;;;2.43;2.33;;;1.70;1.00;;;;;;5016632;28;20403;-73
2022/01/06 05:26:55;;;;;;;4.10;2.77;;;1.70;1.00;;;;;;5016906;28;20453;-74
2022/01/06 05:29:22;;;;;;;2.22;2.05;;;1.70;1.00;;;;;;5015959;28;20161;-72
2022/01/06 05:31:48;;;;;;;2.13;1.67;;;1.70;1.00;;;;;;5016462;28;20196;-75
2022/01/06 05:34:14;;;;;;;2.30;2.10;;;1.70;1.00;;;;;;5016721;28;20872;-73
2022/01/06 05:36:39;;;;;;;4.13;1.97;;;1.60;1.00;;;;;;4999013;28;20411;-73
2022/01/06 05:39:06;;;;;;;2.07;1.90;;;1.60;1.00;;;;;;5015787;28;20169;-73
2022/01/06 05:41:32;;;;;;;2.37;2.27;;;1.60;1.00;;;;;;5015795;28;20223;-72
2022/01/06 05:43:58;;;;;;;2.07;1.97;;;1.50;1.00;;;;;;5016590;28;20486;-72
2022/01/06 05:46:24;;;;;;;3.90;2.90;;;1.60;1.00;;;;;;5016137;28;20418;-75
2022/01/06 05:48:49;;;;;;;2.10;1.90;;;1.50;1.00;;;;;;5015516;28;20407;-72
2022/01/06 05:51:15;;;;;;;1.90;1.80;;;1.40;1.00;;;;;;5015979;28;20219;-72
2022/01/06 05:53:41;;;;;;;2.40;2.30;;;1.40;1.00;;;;;;5016411;28;20226;-73
2022/01/06 05:56:07;;;;;;;1.90;1.80;;;1.40;1.00;;;;;;5015410;28;20215;-73
2022/01/06 05:58:33;;;;;;;3.63;2.47;;;1.20;1.00;;;;;;5015135;28;20454;-76
2022/01/06 06:00:59;;;;;;;2.15;2.05;;;1.30;1.00;;;;;;5015821;28;20657;-72
2022/01/06 06:03:27;;;;;;;1.90;1.70;;;1.30;1.00;;;;;;4998305;28;20263;-72
2022/01/06 06:05:54;;;;;;;2.03;1.93;;;1.30;1.00;;;;;;5015910;28;20233;-75
2022/01/06 06:08:20;;;;;;;2.28;2.13;;;1.30;1.00;;;;;;5015728;28;20415;-75
2022/01/06 06:10:46;;;;;;;4.07;1.95;;;1.20;1.00;;;;;;4997295;28;20643;-75
2022/01/06 06:13:12;;;;;;;2.40;2.30;;;1.20;1.00;;;;;;4998067;28;20283;-73
2022/01/06 06:15:37;;;;;;;2.10;2.00;;;1.20;1.00;;;;;;5016183;28;20525;-75
2022/01/06 06:18:04;;;;;;;3.33;3.00;;;1.20;1.00;;;;;;5015564;28;20206;-72
2022/01/06 06:20:30;;;;;;;2.63;2.40;;;1.10;1.00;;;;;;4997431;28;20192;-75
2022/01/06 06:22:57;;;;;;;2.33;2.13;;;1.10;1.00;;;;;;5015460;28;20422;-74
2022/01/06 06:25:22;;;;;;;2.40;2.30;;;1.10;1.00;;;;;;5015875;28;20169;-75
2022/01/06 06:27:48;;;;;;;2.63;1.70;;;1.00;1.00;;;;;;5015491;28;20233;-72
2022/01/06 06:30:14;;;;;;;1.70;1.60;;;1.10;1.00;;;;;;5014812;28;20199;-74
2022/01/06 06:32:40;;;;;;;1.70;1.60;;;1.10;1.00;;;;;;5015660;28;20568;-75
2022/01/06 06:35:06;;;;;;;4.40;2.23;;;1.00;1.00;;;;;;5015308;28;20180;-74
2022/01/06 06:37:32;;;;;;;10.07;2.57;;;1.00;1.00;;;;;;4997961;28;20808;-72
2022/01/06 06:39:58;;;;;;;2.13;2.03;;;1.00;1.00;;;;;;5014185;28;20438;-75
2022/01/06 06:42:25;;;;;;;2.00;1.90;;;1.00;1.00;;;;;;5015448;28;20396;-75
2022/01/06 06:44:51;;;;;;;4.60;2.43;;;1.00;1.00;;;;;;5015082;28;20469;-72
2022/01/06 06:47:17;;;;;;;2.40;2.20;;;0.90;1.00;;;;;;5014796;28;20502;-72
2022/01/06 06:49:43;;;;;;;2.33;2.13;;;0.90;1.00;;;;;;5014299;28;20176;-72
2022/01/06 06:52:09;;;;;;;3.17;2.90;;;0.90;1.00;;;;;;5015212;28;20199;-74
2022/01/06 06:54:35;;;;;;;1.90;1.80;;;0.90;1.00;;;;;;4997597;28;20188;-75
2022/01/06 06:57:01;;;;;;;3.03;2.83;;;0.90;1.00;;;;;;5014999;28;20442;-75
2022/01/06 06:59:26;;;;;;;5.70;2.15;;;0.80;1.00;;;;;;5013675;28;20203;-75
2022/01/06 07:01:52;;;;;;;1.77;1.67;;;0.80;1.00;;;;;;5014831;28;20663;-76
2022/01/06 07:04:17;;;;;;;2.97;2.70;;;0.80;1.00;;;;;;5015028;28;20164;-72
2022/01/06 07:06:43;;;;;;;6.67;2.30;;;0.80;1.00;;;;;;4996873;28;20179;-74
2022/01/06 07:09:09;;;;;;;3.40;2.10;;;0.80;1.00;;;;;;5013459;28;20526;-75
2022/01/06 07:11:34;;;;;;;2.10;2.00;;;0.80;1.00;;;;;;4996900;28;20187;-75
2022/01/06 07:14:00;;;;;;;4.93;2.30;;;0.80;1.00;;;;;;5015109;28;20181;-76
2022/01/06 07:16:26;;;;;;;4.63;2.67;;;0.70;1.00;;;;;;5014540;28;20564;-76
2022/01/06 07:18:51;;;;;;;1.90;1.80;;;0.70;1.00;;;;;;5013625;28;20206;-72
2022/01/06 07:21:17;;;;;;;3.20;2.43;;;0.80;1.00;;;;;;4996917;28;20232;-72
2022/01/06 07:23:43;;;;;;;2.10;2.00;;;0.80;1.00;;;;;;5014765;28;20176;-72
2022/01/06 07:26:08;;;;;;;2.63;2.43;;;0.70;1.00;;;;;;5014423;28;20211;-72
2022/01/06 07:28:34;;;;;;;2.90;2.03;;;0.70;1.00;;;;;;5013316;28;20179;-72
2022/01/06 07:31:00;;;;;;;2.20;2.00;;;0.70;1.00;;;;;;5014488;28;20195;-76
2022/01/06 07:33:25;;;;;;;2.03;1.90;;;0.70;1.00;;;;;;5014191;28;20225;-72
2022/01/06 07:35:51;;;;;;;8.83;3.50;;;0.60;1.00;;;;;;5014586;28;20200;-76
2022/01/06 07:38:17;;;;;;;2.20;2.10;;;0.60;1.00;;;;;;4996520;28;20665;-71
2022/01/06 07:40:44;;;;;;;2.80;2.60;;;0.60;1.00;;;;;;4995771;28;20426;-72
2022/01/06 07:43:10;;;;;;;3.50;2.40;;;0.60;1.00;;;;;;5014010;28;20561;-76
2022/01/06 07:45:36;;;;;;;2.45;2.30;;;0.60;1.00;;;;;;5014261;28;20195;-72
2022/01/06 07:48:03;;;;;;;2.37;2.03;;;0.60;1.00;;;;;;5013831;28;20676;-72
2022/01/06 07:50:34;;;;;;;2.55;2.40;;;0.50;1.00;;;;;;5012747;28;20207;-72
2022/01/06 07:53:00;;;;;;;2.90;2.70;;;0.50;1.00;;;;;;5013725;28;20716;-71
2022/01/06 07:55:26;;;;;;;2.50;2.30;;;0.40;1.00;;;;;;5013835;28;20699;-71
2022/01/06 07:57:54;;;;;;;2.58;2.38;;;0.40;1.00;;;;;;5013957;28;20283;-71
2022/01/06 08:00:20;;;;;;;2.50;2.30;;;0.40;1.00;;;;;;4995422;28;20192;-72
2022/01/06 08:02:47;;;;;;;2.97;2.67;;;0.40;1.00;;;;;;5014075;28;20207;-71
2022/01/06 08:05:15;;;;;;;3.30;3.00;;;0.30;1.00;;;;;;5013912;28;20164;-71
2022/01/06 08:07:40;;;;;;;3.72;3.38;;;0.30;1.00;;;;;;5013819;28;20204;-77
2022/01/06 08:10:08;;;;;;;3.13;2.93;;;0.30;1.00;;;;;;5013006;28;20310;-77
2022/01/06 08:12:34;;;;;;;4.10;2.95;;;0.30;1.00;;;;;;5013833;28;20506;-71
2022/01/06 08:15:00;;;;;;;3.67;3.13;;;0.20;1.00;;;;;;4996499;28;20187;-77
2022/01/06 08:17:26;;;;;;;3.03;2.83;;;0.20;1.00;;;;;;5013752;28;20549;-71
2022/01/06 08:19:52;;;;;;;3.10;2.90;;;0.20;1.00;;;;;;4994786;28;20200;-72
2022/01/06 08:22:19;;;;;;;3.90;3.60;;;0.20;1.00;;;;;;5013764;28;20183;-77
2022/01/06 08:24:44;;;;;;;2.63;2.42;;;0.20;1.00;;;;;;5013717;28;20494;-71
2022/01/06 08:27:10;;;;;;;3.30;2.93;;;0.20;1.00;;;;;;5013737;28;20263;-76
2022/01/06 08:29:40;;;;;;;2.90;2.80;;;0.10;1.00;;;;;;4995358;28;20199;-71
2022/01/06 08:32:06;;;;;;;2.88;2.47;;;0.10;1.00;;;;;;5013695;28;20175;-77
2022/01/06 08:34:33;;;;;;;2.50;2.33;;;0.10;1.00;;;;;;5013728;28;20175;-77
2022/01/06 08:36:59;;;;;;;2.50;2.30;;;0.10;1.00;;;;;;5013630;28;20172;-77
2022/01/06 08:39:24;;;;;;;4.53;2.60;;;0.10;1.00;;;;;;5012614;28;20175;-78
2022/01/06 08:41:51;;;;;;;3.03;2.60;;;0.10;1.00;;;;;;5013207;28;20188;-72
2022/01/06 08:44:16;;;;;;;3.05;2.70;;;0.20;1.00;;;;;;4995849;28;20628;-77
2022/01/06 08:46:42;;;;;;;2.67;2.47;;;0.20;1.00;;;;;;4995845;28;20176;-76
2022/01/06 08:49:11;;;;;;;2.50;2.33;;;0.20;1.00;;;;;;5012606;28;20592;-76
2022/01/06 08:51:38;;;;;;;3.10;2.85;;;0.20;1.00;;;;;;5013369;28;20200;-77
2022/01/06 08:54:04;;;;;;;2.25;2.15;;;0.30;1.00;;;;;;5013405;28;20222;-71
2022/01/06 08:56:30;;;;;;;2.40;2.30;;;0.40;1.00;;;;;;4996163;28;20191;-77
2022/01/06 08:58:55;;;;;;;2.97;2.77;;;0.40;1.00;;;;;;5012518;28;20208;-77
2022/01/06 09:01:22;;;;;;;3.23;2.93;;;0.50;1.00;;;;;;4995922;28;20216;-72
2022/01/06 09:03:47;;;;;;;3.28;2.63;;;0.50;1.00;;;;;;5013394;28;20187;-77
2022/01/06 09:06:13;;;;;;;2.87;2.60;;;0.50;1.00;;;;;;5013210;28;20164;-71
2022/01/06 09:08:39;;;;;;;4.23;2.73;;;0.50;1.00;;;;;;5012537;28;20622;-77
2022/01/06 09:11:05;;;;;;;3.20;2.65;;;0.50;1.00;;;;;;5013218;28;20545;-71
2022/01/06 09:13:30;;;;;;;2.90;2.70;;;0.50;1.00;;;;;;4995899;28;20203;-71
2022/01/06 09:15:56;;;;;;;2.77;2.57;;;0.60;1.00;;;;;;5013103;28;20183;-76
2022/01/06 09:18:22;;;;;;;4.35;4.05;;;0.60;1.00;;;;;;5012784;28;20541;-72
2022/01/06 09:20:49;;;;;;;7.63;2.90;;;0.60;1.00;;;;;;5012392;28;20195;-71
2022/01/06 09:23:15;;;;;;;3.28;2.58;;;0.60;1.00;;;;;;5012785;28;20433;-77
2022/01/06 09:25:41;;;;;;;3.00;2.80;;;0.70;1.00;;;;;;4995412;28;20181;-77
2022/01/06 09:28:06;;;;;;;2.80;2.60;;;0.70;1.00;;;;;;5012553;28;20172;-72
2022/01/06 09:30:32;;;;;;;2.47;2.37;;;0.70;1.00;;;;;;5012687;28;20875;-76
2022/01/06 09:32:58;;;;;;;4.23;2.40;;;0.80;1.00;;;;;;4998704;28;20184;-77
2022/01/06 09:35:24;;;;;;;2.50;2.30;;;0.90;1.00;;;;;;4998143;28;20180;-77
2022/01/06 09:37:49;;;;;;;2.67;2.37;;;0.90;1.00;;;;;;5015096;28;20196;-72
2022/01/06 09:40:15;;;;;;;3.97;3.20;;;0.90;1.00;;;;;;5011837;28;20212;-75
2022/01/06 09:42:42;;;;;;;3.67;3.00;;;0.90;1.00;;;;;;4997164;28;20792;-71
2022/01/06 09:45:09;;;;;;;3.20;3.00;;;0.90;1.00;;;;;;5008876;28;20450;-76
2022/01/06 09:47:36;;;;;;;6.90;3.05;;;1.00;1.00;;;;;;4994836;28;20187;-77
2022/01/06 09:50:02;;;;;;;8.45;3.67;;;1.00;1.00;;;;;;5014389;28;20219;-77
2022/01/06 09:52:28;;;;;;;5.00;3.50;;;1.00;1.00;;;;;;5014935;28;20204;-72
2022/01/06 09:54:54;;;;;;;3.10;2.70;;;1.00;1.00;;;;;;5016192;28;20176;-77
2022/01/06 09:57:19;;;;;;;6.73;4.10;;;1.00;1.00;;;;;;5014179;28;20230;-75
2022/01/06 09:59:45;;;;;;;4.33;2.80;;;1.10;1.00;;;;;;4995455;28;20176;-71
2022/01/06 10:02:18;;;;;;;3.07;2.97;;;1.00;1.00;;;;;;4980466;28;20650;-77
2022/01/06 10:04:47;;;;;;;4.68;3.08;;;1.10;1.00;;;;;;5012922;28;20187;-76
2022/01/06 10:07:16;;;;;;;3.35;2.78;;;1.10;1.00;;;;;;5015829;28;20173;-76
2022/01/06 10:09:42;;;;;;;2.50;2.30;;;1.10;1.00;;;;;;5014273;28;20180;-77
2022/01/06 10:12:11;;;;;;;3.00;2.80;;;1.10;1.00;;;;;;5015358;28;20176;-72
2022/01/06 10:14:46;;;;;;;4.63;3.50;;;1.20;1.00;;;;;;5010916;28;20188;-73
2022/01/06 10:17:16;;;;;;;3.27;3.07;;;1.30;1.00;;;;;;5000508;28;20461;-76
2022/01/06 10:19:45;;;;;;;3.47;2.90;;;1.30;1.00;;;;;;5007156;28;20419;-77
2022/01/06 10:22:19;;;;;;;3.73;2.87;;;1.30;1.00;;;;;;5010237;28;20434;-72
2022/01/06 10:24:46;;;;;;;5.68;3.00;;;1.40;1.00;;;;;;5015026;28;20423;-76
2022/01/06 10:27:15;;;;;;;3.07;2.87;;;1.40;1.00;;;;;;5015705;28;20196;-72
2022/01/06 10:29:46;;;;;;;4.93;3.23;;;1.40;1.00;;;;;;5014002;28;20415;-76
2022/01/06 10:32:19;;;;;;;2.10;2.00;;;1.40;1.00;;;;;;5015545;28;20884;-77
2022/01/06 10:34:48;;;;;;;4.37;3.10;;;1.50;1.00;;;;;;5015057;28;20423;-72
2022/01/06 10:37:26;;;;;;;3.03;2.73;;;1.50;1.00;;;;;;4997772;28;20958;-72
2022/01/06 10:39:54;;;;;;;2.13;2.03;;;1.60;1.00;;;;;;5013978;28;20473;-71
2022/01/06 10:42:28;;;;;;;3.20;1.93;;;1.60;1.00;;;;;;5011270;28;20416;-71
2022/01/06 10:45:04;;;;;;;3.95;2.95;;;1.60;1.00;;;;;;4995603;28;20748;-72
2022/01/06 10:47:36;;;;;;;4.17;3.20;;;1.60;1.00;;;;;;4995550;28;20264;-76
2022/01/06 10:50:15;;;;;;;2.40;2.30;;;1.70;1.00;;;;;;4997987;28;20788;-71
2022/01/06 10:52:47;;;;;;;12.47;2.70;;;1.70;1.00;;;;;;5004670;28;20411;-72
2022/01/06 10:55:12;;;;;;;2.77;2.60;;;1.80;1.00;;;;;;5015197;28;20771;-77
2022/01/06 10:57:51;;;;;;;3.10;2.50;;;1.80;1.00;;;;;;5014866;28;20539;-75
2022/01/06 11:00:18;;;;;;;3.27;3.07;;;1.80;1.00;;;;;;5013718;28;20439;-71
2022/01/06 11:02:44;;;;;;;2.23;2.03;;;1.80;1.00;;;;;;4996837;28;20423;-75
2022/01/06 11:05:10;;;;;;;3.10;2.23;;;1.80;1.00;;;;;;5014902;28;20426;-76
2022/01/06 11:07:36;;;;;;;2.50;2.30;;;1.80;1.00;;;;;;4996920;28;20176;-75
2022/01/06 11:10:13;;;;;;;4.10;2.50;;;1.80;1.00;;;;;;5013616;28;20287;-75
2022/01/06 11:12:39;;;;;;;3.00;2.53;;;1.80;1.00;;;;;;5014221;28;20494;-75
2022/01/06 11:15:05;;;;;;;2.50;2.30;;;1.80;1.00;;;;;;5014354;28;20423;-74
2022/01/06 11:17:31;;;;;;;3.47;2.20;;;1.90;1.00;;;;;;5014843;28;20462;-76
2022/01/06 11:19:57;;;;;;;3.33;2.30;;;1.90;1.00;;;;;;5013425;28;20488;-70
2022/01/06 11:22:24;;;;;;;2.07;1.97;;;1.90;1.00;;;;;;4996612;28;20637;-69
2022/01/06 11:24:59;;;;;;;6.20;2.63;;;1.90;1.00;;;;;;4997874;28;20180;-75
2022/01/06 11:27:36;;;;;;;2.90;2.50;;;1.80;1.00;;;;;;5009946;28;20419;-70
2022/01/06 11:30:16;;;;;;;2.50;2.30;;;1.80;1.00;;;;;;5012861;28;20467;-75
2022/01/06 11:32:42;;;;;;;5.57;3.03;;;1.80;1.00;;;;;;5014583;28;20433;-75
2022/01/06 11:35:19;;;;;;;2.77;2.60;;;1.80;1.00;;;;;;5014195;28;20395;-75
2022/01/06 11:37:46;;;;;;;2.27;2.07;;;1.80;1.00;;;;;;5014252;28;20446;-76
2022/01/06 11:40:14;;;;;;;5.17;2.80;;;1.80;1.00;;;;;;5013202;28;20427;-70
2022/01/06 11:42:53;;;;;;;3.37;3.07;;;1.90;1.00;;;;;;5014490;28;20497;-70
2022/01/06 11:45:20;;;;;;;3.10;2.90;;;1.90;1.00;;;;;;5014017;28;20429;-75
2022/01/06 11:47:45;;;;;;;2.07;1.97;;;2.00;1.00;;;;;;5014417;28;20399;-76
2022/01/06 11:50:25;;;;;;;3.50;2.47;;;2.00;1.00;;;;;;4990971;28;20812;-74
2022/01/06 11:52:52;;;;;;;3.10;2.53;;;2.10;1.00;;;;;;4994676;28;20256;-68
2022/01/06 11:55:19;;;;;;;4.17;2.70;;;2.30;1.00;;;;;;4994328;28;20400;-75
2022/01/06 11:57:44;;;;;;;2.40;2.20;;;2.40;1.00;;;;;;4999371;28;20590;-75
2022/01/06 12:00:22;;;;;;;2.10;2.00;;;2.30;1.00;;;;;;4995415;28;20471;-74
2022/01/06 12:03:01;;;;;;;7.50;2.83;;;2.40;1.00;;;;;;5013710;28;20200;-68
2022/01/06 12:05:28;;;;;;;2.80;2.60;;;2.40;1.00;;;;;;5013750;28;20490;-69
2022/01/06 12:07:54;;;;;;;2.63;2.43;;;2.40;1.00;;;;;;5013767;28;20411;-68
2022/01/06 12:10:21;;;;;;;2.30;2.10;;;2.50;1.00;;;;;;5012704;28;20827;-68
2022/01/06 12:12:50;;;;;;;3.07;2.50;;;2.50;1.00;;;;;;5013720;28;20415;-68
2022/01/06 12:15:19;;;;;;;4.90;2.93;;;2.60;1.00;;;;;;4996115;28;20908;-74
2022/01/06 12:17:53;;;;;;;4.30;2.30;;;2.60;1.00;;;;;;5013370;28;20457;-75
2022/01/06 12:20:26;;;;;;;5.07;2.30;;;2.60;1.00;;;;;;5012651;28;20787;-68
2022/01/06 12:22:52;;;;;;;2.80;2.17;;;2.60;1.00;;;;;;5013730;28;20445;-68
2022/01/06 12:25:23;;;;;;;2.93;2.63;;;2.70;1.00;;;;;;5013313;28;20415;-74
2022/01/06 12:27:53;;;;;;;2.73;2.60;;;2.80;1.00;;;;;;5013381;28;20419;-68
2022/01/06 12:30:19;;;;;;;4.53;2.60;;;2.80;1.00;;;;;;4995329;28;20427;-68
2022/01/06 12:32:56;;;;;;;8.33;2.20;;;2.80;1.00;;;;;;5013461;28;20424;-74
2022/01/06 12:35:37;;;;;;;2.47;2.27;;;2.70;1.00;;;;;;5013274;28;20819;-69
2022/01/06 12:38:03;;;;;;;2.20;2.10;;;2.80;1.00;;;;;;5012745;28;20453;-74
2022/01/06 12:40:34;;;;;;;3.27;3.07;;;2.80;1.00;;;;;;5012288;28;20772;-69
2022/01/06 12:43:11;;;;;;;2.77;2.53;;;2.80;1.00;;;;;;5013304;28;20242;-74
2022/01/06 12:45:37;;;;;;;3.63;3.33;;;2.90;1.00;;;;;;4995515;28;20422;-74
2022/01/06 12:48:02;;;;;;;8.60;2.70;;;2.90;1.00;;;;;;4995769;28;20784;-68
2022/01/06 12:50:28;;;;;;;5.83;2.70;;;2.80;1.00;;;;;;4994438;28;20200;-71
2022/01/06 12:52:54;;;;;;;2.10;2.00;;;2.90;1.00;;;;;;5013297;28;20184;-70
2022/01/06 12:55:20;;;;;;;2.67;2.47;;;2.90;1.00;;;;;;5013295;28;20263;-74
2022/01/06 12:57:51;;;;;;;2.90;2.47;;;3.00;1.00;;;;;;5012917;28;20208;-74
2022/01/06 13:00:19;;;;;;;2.10;1.90;;;3.00;1.00;;;;;;5012021;28;20196;-74
2022/01/06 13:02:56;;;;;;;2.97;2.67;;;3.00;1.00;;;;;;5013123;28;20399;-69
2022/01/06 13:05:22;;;;;;;3.13;2.83;;;3.00;1.00;;;;;;5013660;28;20481;-69
2022/01/06 13:07:48;;;;;;;3.13;2.23;;;2.90;1.00;;;;;;5016797;28;20414;-74
2022/01/06 13:10:16;;;;;;;2.60;2.37;;;2.90;1.00;;;;;;5016102;28;20927;-69
2022/01/06 13:12:41;;;;;;;2.23;2.13;;;2.90;1.00;;;;;;5017004;28;20176;-69
2022/01/06 13:15:08;;;;;;;2.77;2.57;;;2.90;1.00;;;;;;5016901;28;20510;-74